Bogard Atmospheric Data: 05/15/2019 Summary  Detailed Graphs  Station List

  Temperature     Wind Precipitation Visibility
Timestamp Air Wet
Bulb
Dew-
point
24-hr
Max
24-hr
Min
Relative
Humidity
Atmospheric
Pressure
Avg
Speed
Avg
Dir
Spot
Speed
Spot
Dir
Max
Speed
Max
Dir
  Rate Situation Start End 1 hr 3 hr 6 hr 12 hr 24 hr   Situation
Date Time °F °F °F °F °F % in Hg mph ° mph ° mph ° Y/N in/hr text Date Time Date Time in in in in in mi text
05/15/2019 12:02 AM 43.16 39.74 35.60 59.18 40.10 74.0 Not Reported 0.00 N 1.34 SW 0.67 NW No 0.000 No Precipitation 05/05/2019 10:15 PM 05/05/2019 10:20 PM 0.000 0.000 0.000 0.000 0.000 Not Reported Not Reported
05/15/2019 12:17 AM 42.26 39.38 35.42 59.18 40.10 77.0 Not Reported 0.89 SW 2.01 SW 2.24 SW No 0.000 No Precipitation 05/05/2019 10:15 PM 05/05/2019 10:20 PM 0.000 0.000 0.000 0.000 0.000 Not Reported Not Reported
05/15/2019 12:32 AM 42.44 39.20 35.06 59.18 40.10 75.0 Not Reported 1.34 W 1.57 W 1.79 W No 0.000 No Precipitation 05/05/2019 10:15 PM 05/05/2019 10:20 PM 0.000 0.000 0.000 0.000 0.000 Not Reported Not Reported
05/15/2019 12:47 AM 42.62 39.38 35.06 59.18 40.10 74.0 Not Reported 1.57 SW 1.57 SW 1.57 SW No 0.000 No Precipitation 05/05/2019 10:15 PM 05/05/2019 10:20 PM 0.000 0.000 0.000 0.000 0.000 Not Reported Not Reported
05/15/2019 01:02 AM 42.44 38.84 34.70 59.18 40.10 72.0 Not Reported 1.79 W 1.79 SW 2.01 W No 0.000 No Precipitation 05/05/2019 10:15 PM 05/05/2019 10:20 PM 0.000 0.000 0.000 0.000 0.000 Not Reported Not Reported
05/15/2019 01:17 AM 42.44 39.38 35.42 59.18 40.10 76.0 Not Reported 0.00 SW 2.46 SW 2.01 SW No 0.000 No Precipitation 05/05/2019 10:15 PM 05/05/2019 10:20 PM 0.000 0.000 0.000 0.000 0.000 Not Reported Not Reported
05/15/2019 01:32 AM 42.08 39.02 34.70 59.18 40.10 75.0 Not Reported 0.67 W 2.68 SW 1.34 SW No 0.000 No Precipitation 05/05/2019 10:15 PM 05/05/2019 10:20 PM 0.000 0.000 0.000 0.000 0.000 Not Reported Not Reported
05/15/2019 01:47 AM 41.90 38.84 35.06 59.18 40.10 76.0 Not Reported 1.12 W 0.89 W 3.58 SW No 0.000 No Precipitation 05/05/2019 10:15 PM 05/05/2019 10:20 PM 0.000 0.000 0.000 0.000 0.000 Not Reported Not Reported
05/15/2019 02:02 AM 41.90 39.20 35.06 59.18 40.10 78.0 Not Reported 0.00 N 0.00 W 1.34 SW No 0.000 No Precipitation 05/05/2019 10:15 PM 05/05/2019 10:20 PM 0.000 0.000 0.000 0.000 0.000 Not Reported Not Reported
05/15/2019 02:17 AM 41.72 38.84 35.78 59.18 40.10 78.0 Not Reported 1.57 E 0.00 SE 1.57 NE No 0.000 No Precipitation 05/05/2019 10:15 PM 05/05/2019 10:20 PM 0.000 0.000 0.000 0.000 0.000 Not Reported Not Reported
05/15/2019 02:32 AM 41.18 38.48 35.24 59.18 40.10 79.0 Not Reported 2.24 SW 3.13 SW 2.68 SW No 0.000 No Precipitation 05/05/2019 10:15 PM 05/05/2019 10:20 PM 0.000 0.000 0.000 0.000 0.000 Not Reported Not Reported
05/15/2019 02:47 AM 40.64 38.12 35.06 59.18 40.10 80.0 Not Reported 0.89 SW 1.12 W 3.13 SW No 0.000 No Precipitation 05/05/2019 10:15 PM 05/05/2019 10:20 PM 0.000 0.000 0.000 0.000 0.000 Not Reported Not Reported
05/15/2019 03:02 AM 40.28 37.94 34.88 59.18 40.10 81.0 Not Reported 0.45 W 0.67 W 2.24 SE No 0.000 No Precipitation 05/05/2019 10:15 PM 05/05/2019 10:20 PM 0.000 0.000 0.000 0.000 0.000 Not Reported Not Reported
05/15/2019 03:17 AM 39.38 37.40 34.70 59.18 39.38 83.0 Not Reported 1.12 SW 1.79 SW 0.89 W No 0.000 No Precipitation 05/05/2019 10:15 PM 05/05/2019 10:20 PM 0.000 0.000 0.000 0.000 0.000 Not Reported Not Reported
05/15/2019 03:32 AM 39.56 37.58 34.88 59.18 39.20 83.0 Not Reported 0.22 W 1.12 SW 1.34 SW No 0.000 No Precipitation 05/05/2019 10:15 PM 05/05/2019 10:20 PM 0.000 0.000 0.000 0.000 0.000 Not Reported Not Reported
05/15/2019 03:47 AM 39.38 37.58 35.06 59.18 39.20 84.0 Not Reported 1.12 SW 0.45 W 1.57 SW No 0.000 No Precipitation 05/05/2019 10:15 PM 05/05/2019 10:20 PM 0.000 0.000 0.000 0.000 0.000 Not Reported Not Reported
05/15/2019 04:02 AM 39.38 37.58 35.24 59.18 39.20 84.0 Not Reported 0.00 N 0.89 W 1.34 W No 0.000 No Precipitation 05/05/2019 10:15 PM 05/05/2019 10:20 PM 0.000 0.000 0.000 0.000 0.000 Not Reported Not Reported
05/15/2019 04:17 AM 39.02 37.40 35.24 59.18 39.02 86.0 Not Reported 1.79 SW 1.79 SW 1.34 W No 0.000 No Precipitation 05/05/2019 10:15 PM 05/05/2019 10:20 PM 0.000 0.000 0.000 0.000 0.000 Not Reported Not Reported
05/15/2019 04:32 AM 39.02 37.40 35.24 59.18 39.02 86.0 Not Reported 1.12 SW 2.46 SW 3.36 SW No 0.000 No Precipitation 05/05/2019 10:15 PM 05/05/2019 10:20 PM 0.000 0.000 0.000 0.000 0.000 Not Reported Not Reported
05/15/2019 04:47 AM 39.38 37.40 35.24 59.18 38.84 85.0 Not Reported 0.67 SW 1.57 W 3.13 SW No 0.000 No Precipitation 05/05/2019 10:15 PM 05/05/2019 10:20 PM 0.000 0.000 0.000 0.000 0.000 Not Reported Not Reported
05/15/2019 05:02 AM 39.38 37.58 35.24 59.18 38.84 85.0 Not Reported 0.00 N 0.00 W 1.12 W No 0.000 No Precipitation 05/05/2019 10:15 PM 05/05/2019 10:20 PM 0.000 0.000 0.000 0.000 0.000 Not Reported Not Reported
05/15/2019 05:17 AM 38.84 37.40 35.60 59.18 38.84 88.0 Not Reported 0.67 SW 1.57 SW 0.22 W No 0.000 No Precipitation 05/05/2019 10:15 PM 05/05/2019 10:20 PM 0.000 0.000 0.000 0.000 0.000 Not Reported Not Reported
05/15/2019 05:32 AM 38.66 37.22 35.42 59.18 38.66 87.0 Not Reported 0.89 S 0.89 S 2.24 SW No 0.000 No Precipitation 05/05/2019 10:15 PM 05/05/2019 10:20 PM 0.000 0.000 0.000 0.000 0.000 Not Reported Not Reported
05/15/2019 05:47 AM 38.66 37.22 35.24 59.18 38.66 87.0 Not Reported 1.79 SW 1.34 S 1.79 SW No 0.000 No Precipitation 05/05/2019 10:15 PM 05/05/2019 10:20 PM 0.000 0.000 0.000 0.000 0.000 Not Reported Not Reported
05/15/2019 06:02 AM 39.20 37.58 35.60 59.18 38.66 86.0 Not Reported 0.00 SW 0.67 SW 1.34 SW No 0.000 No Precipitation 05/05/2019 10:15 PM 05/05/2019 10:20 PM 0.000 0.000 0.000 0.000 0.000 Not Reported Not Reported
05/15/2019 06:17 AM 38.84 37.40 35.42 59.18 38.66 87.0 Not Reported 0.67 S 0.67 SW 0.67 SW No 0.000 No Precipitation 05/05/2019 10:15 PM 05/05/2019 10:20 PM 0.000 0.000 0.000 0.000 0.000 Not Reported Not Reported
05/15/2019 06:32 AM 39.20 37.76 35.78 59.18 38.66 87.0 Not Reported 0.89 E 1.34 E 1.12 S No 0.000 No Precipitation 05/05/2019 10:15 PM 05/05/2019 10:20 PM 0.000 0.000 0.000 0.000 0.000 Not Reported Not Reported
05/15/2019 06:46 AM 39.56 37.94 35.96 59.18 38.66 86.0 Not Reported 0.22 E 0.00 S 1.34 E No 0.000 No Precipitation 05/05/2019 10:15 PM 05/05/2019 10:20 PM 0.000 0.000 0.000 0.000 0.000 Not Reported Not Reported
05/15/2019 07:02 AM 39.56 38.12 36.14 59.18 38.66 86.0 Not Reported 2.24 S 1.12 SE 2.68 SE No 0.000 No Precipitation 05/05/2019 10:15 PM 05/05/2019 10:20 PM 0.000 0.000 0.000 0.000 0.000 Not Reported Not Reported
05/15/2019 07:17 AM 41.00 38.84 36.32 59.18 38.66 83.0 Not Reported 2.91 SE 0.89 S 2.91 S No 0.000 No Precipitation 05/05/2019 10:15 PM 05/05/2019 10:20 PM 0.000 0.000 0.000 0.000 0.000 Not Reported Not Reported
05/15/2019 07:32 AM 41.18 39.02 36.14 59.18 38.66 82.0 Not Reported 1.57 S 1.79 S 3.58 SE No 0.000 No Precipitation 05/05/2019 10:15 PM 05/05/2019 10:20 PM 0.000 0.000 0.000 0.000 0.000 Not Reported Not Reported
05/15/2019 07:47 AM 41.54 39.20 35.96 59.18 38.66 81.0 Not Reported 2.91 E 3.36 E 3.58 SE No 0.000 No Precipitation 05/05/2019 10:15 PM 05/05/2019 10:20 PM 0.000 0.000 0.000 0.000 0.000 Not Reported Not Reported
05/15/2019 08:02 AM 42.98 39.74 35.24 59.18 38.66 73.0 Not Reported 5.82 SE 6.93 SE 6.71 E No 0.000 No Precipitation 05/05/2019 10:15 PM 05/05/2019 10:20 PM 0.000 0.000 0.000 0.000 0.000 Not Reported Not Reported
05/15/2019 08:17 AM 43.70 40.10 36.50 59.18 38.66 74.0 Not Reported 3.58 SE 4.70 SE 11.41 E No 0.000 No Precipitation 05/05/2019 10:15 PM 05/05/2019 10:20 PM 0.000 0.000 0.000 0.000 0.000 Not Reported Not Reported
05/15/2019 08:32 AM 42.98 39.92 36.68 59.18 38.66 77.0 Not Reported 4.92 S 7.38 E 7.16 SE No 0.000 No Precipitation 05/05/2019 10:15 PM 05/05/2019 10:20 PM 0.000 0.000 0.000 0.000 0.000 Not Reported Not Reported
05/15/2019 08:47 AM 42.26 40.10 37.76 59.18 38.66 83.0 Not Reported 8.50 S 9.84 S 11.18 S No 0.000 No Precipitation 05/05/2019 10:15 PM 05/05/2019 10:20 PM 0.000 0.000 0.000 0.000 0.000 Not Reported Not Reported
05/15/2019 09:02 AM 41.72 40.10 38.30 59.18 38.66 87.0 Not Reported 4.47 SE 6.93 S 12.08 SE No 0.000 No Precipitation 05/05/2019 10:15 PM 05/05/2019 10:20 PM 0.000 0.000 0.000 0.000 0.000 Not Reported Not Reported
05/15/2019 09:17 AM 41.18 39.92 38.30 59.18 38.66 89.0 Not Reported 4.25 S 7.83 SE 12.75 SE No 0.000 No Precipitation 05/15/2019 01:10 AM 05/15/2019 01:15 AM 0.004 0.004 0.004 0.004 0.004 Not Reported Not Reported
05/15/2019 09:32 AM 40.82 39.38 37.76 59.18 38.66 88.0 Not Reported 9.84 SE 11.41 SE 11.41 SE No 0.000 No Precipitation 05/15/2019 01:25 AM 05/15/2019 01:30 AM 0.008 0.008 0.008 0.008 0.008 Not Reported Not Reported
05/15/2019 09:47 AM 41.54 40.28 38.84 59.18 38.66 90.0 Not Reported 4.03 SE 1.12 S 11.41 SE No 0.000 No Precipitation 05/15/2019 01:25 AM 05/15/2019 01:30 AM 0.008 0.008 0.008 0.008 0.008 Not Reported Not Reported
05/15/2019 10:02 AM 41.72 40.10 38.66 59.18 38.66 87.0 Not Reported 5.14 SE 6.49 E 8.95 E No 0.000 No Precipitation 05/15/2019 01:25 AM 05/15/2019 01:30 AM 0.008 0.008 0.008 0.008 0.008 Not Reported Not Reported
05/15/2019 10:17 AM 41.36 40.28 39.02 59.18 38.66 90.0 Not Reported 3.58 SE 3.80 SE 8.28 SE No 0.000 No Precipitation 05/15/2019 01:25 AM 05/15/2019 01:30 AM 0.004 0.008 0.008 0.008 0.008 Not Reported Not Reported
05/15/2019 10:32 AM 41.54 40.28 39.02 59.18 38.66 90.0 Not Reported 3.36 SE 4.03 S 6.71 SE No 0.000 No Precipitation 05/15/2019 02:25 AM 05/15/2019 02:30 AM 0.004 0.008 0.008 0.008 0.008 Not Reported Not Reported
05/15/2019 10:47 AM 41.36 39.92 38.12 59.18 38.66 89.0 Not Reported 4.92 SE 5.37 S 8.50 S No 0.000 No Precipitation 05/15/2019 02:47 AM   0.008 0.016 0.016 0.016 0.008 Not Reported Not Reported
05/15/2019 11:02 AM 41.36 40.10 38.66 59.18 38.66 90.0 Not Reported 5.82 SE 3.58 E 7.16 S No 0.000 No Precipitation 05/15/2019 02:56 AM 05/15/2019 03:01 AM 0.008 0.020 0.020 0.020 0.020 Not Reported Not Reported
05/15/2019 11:17 AM 41.54 40.46 39.20 59.18 38.66 91.0 Not Reported 4.25 SE 4.47 SE 13.42 SE No 0.000 No Precipitation 05/15/2019 03:11 AM 05/15/2019 03:16 AM 0.016 0.020 0.020 0.020 0.020 Not Reported Not Reported
05/15/2019 11:32 AM 41.36 40.10 38.84 59.18 38.66 91.0 Not Reported 5.82 SE 4.92 S 9.17 S No 0.000 No Precipitation 05/15/2019 03:26 AM 05/15/2019 03:31 AM 0.016 0.028 0.028 0.028 0.028 Not Reported Not Reported
05/15/2019 11:47 AM 41.36 40.10 38.84 59.18 38.66 91.0 Not Reported 5.14 SE 6.26 SE 8.50 SE Yes 0.043 Rain Slight 05/15/2019 03:43 AM   0.020 0.031 0.031 0.031 0.031 Not Reported Not Reported
05/15/2019 12:02 PM 41.54 40.64 39.56 59.18 38.66 92.0 Not Reported 4.92 SE 5.82 SE 10.07 SW No 0.000 No Precipitation 05/15/2019 03:52 AM 05/15/2019 03:57 AM 0.016 0.035 0.035 0.035 0.035 Not Reported Not Reported
05/15/2019 12:17 PM 42.80 41.72 40.10 59.18 38.66 90.0 Not Reported 4.92 SE 6.04 S 12.08 SE No 0.000 No Precipitation 05/15/2019 04:02 AM 05/15/2019 04:07 AM 0.016 0.035 0.039 0.039 0.039 Not Reported Not Reported
05/15/2019 12:32 PM 42.80 41.54 39.92 59.18 38.66 90.0 Not Reported 8.05 SE 4.03 S 11.18 E No 0.000 No Precipitation 05/15/2019 04:02 AM 05/15/2019 04:07 AM 0.008 0.031 0.039 0.039 0.039 Not Reported Not Reported
05/15/2019 12:47 PM 42.44 41.00 39.38 59.18 38.66 88.0 Not Reported 9.62 S 7.38 S 12.53 S Yes 0.043 Rain Slight 05/15/2019 04:38 AM   0.016 0.039 0.043 0.043 0.043 Not Reported Not Reported
05/15/2019 01:02 PM 42.80 41.36 39.38 59.18 38.66 88.0 Not Reported 4.92 S 8.05 SE 10.96 S No 0.000 No Precipitation 05/15/2019 04:56 AM 05/15/2019 05:01 AM 0.020 0.043 0.055 0.055 0.055 Not Reported Not Reported
05/15/2019 01:17 PM 42.80 41.18 39.92 59.18 38.66 88.0 Not Reported 4.03 S 5.14 SE 10.51 S Yes 0.043 Rain Slight 05/15/2019 05:14 AM   0.020 0.051 0.059 0.059 0.059 Not Reported Not Reported
05/15/2019 01:32 PM 42.44 40.82 39.38 59.18 38.66 87.0 Not Reported 6.49 S 8.05 SE 9.84 S No 0.000 No Precipitation 05/15/2019 05:14 AM 05/15/2019 05:19 AM 0.020 0.043 0.059 0.059 0.059 Not Reported Not Reported
05/15/2019 01:47 PM 42.80 41.18 39.20 59.18 38.66 87.0 Not Reported 8.05 S 7.16 S 10.74 SE No 0.000 No Precipitation 05/15/2019 05:14 AM 05/15/2019 05:19 AM 0.008 0.039 0.059 0.059 0.059 Not Reported Not Reported
05/15/2019 02:02 PM 42.44 41.00 38.84 59.18 38.66 87.0 Not Reported 6.71 S 5.14 S 14.54 SE No 0.000 No Precipitation 05/15/2019 05:14 AM 05/15/2019 05:19 AM 0.004 0.039 0.059 0.059 0.059 Not Reported Not Reported
05/15/2019 02:17 PM 42.62 41.00 39.20 59.18 38.66 87.0 Not Reported 5.37 SE 9.62 E 11.63 S No 0.000 No Precipitation 05/15/2019 05:14 AM 05/15/2019 05:19 AM 0.000 0.035 0.059 0.059 0.059 Not Reported Not Reported
05/15/2019 02:32 PM 42.62 41.00 39.74 59.18 38.66 88.0 Not Reported 6.49 S 9.62 S 10.96 SE No 0.000 No Precipitation 05/15/2019 06:18 AM 05/15/2019 06:23 AM 0.004 0.035 0.063 0.063 0.063 Not Reported Not Reported
05/15/2019 02:47 PM 42.80 41.36 39.20 59.18 38.66 87.0 Not Reported 6.71 S 7.38 S 11.63 SE Yes 0.043 Rain Slight 05/15/2019 06:43 AM   0.008 0.035 0.067 0.067 0.067 Not Reported Not Reported
05/15/2019 03:02 PM 43.34 41.54 40.28 59.18 38.66 86.0 Not Reported 10.51 SE 10.07 SE 12.08 SE No 0.000 No Precipitation 05/15/2019 06:43 AM 05/15/2019 06:48 AM 0.008 0.031 0.067 0.067 0.067 Not Reported Not Reported
05/15/2019 03:17 PM 43.34 41.90 40.28 57.92 38.66 88.0 Not Reported 5.59 S 6.93 S 10.07 SW No 0.000 No Precipitation 05/15/2019 06:43 AM 05/15/2019 06:48 AM 0.008 0.028 0.063 0.067 0.067 Not Reported Not Reported
05/15/2019 03:32 PM 43.16 42.08 39.56 57.38 38.66 88.0 Not Reported 6.26 S 4.25 S 8.05 SE Yes 0.043 Rain Slight 05/15/2019 07:30 AM   0.008 0.031 0.063 0.071 0.071 Not Reported Not Reported
05/15/2019 03:47 PM 43.88 42.26 40.28 57.38 38.66 87.0 Not Reported 9.62 S 9.17 S 8.28 S No 0.000 No Precipitation 05/15/2019 07:30 AM 05/15/2019 07:35 AM 0.004 0.020 0.063 0.071 0.071 Not Reported Not Reported
05/15/2019 04:02 PM 44.24 41.72 40.10 57.38 38.66 83.0 Not Reported 8.28 S 12.30 SE 17.00 S No 0.000 No Precipitation 05/15/2019 07:30 AM 05/15/2019 07:35 AM 0.004 0.016 0.063 0.071 0.071 Not Reported Not Reported
05/15/2019 04:17 PM 44.24 42.26 40.82 57.38 38.66 85.0 Not Reported 8.05 S 10.96 S 12.53 S No 0.000 No Precipitation 05/15/2019 07:30 AM 05/15/2019 07:35 AM 0.004 0.008 0.063 0.071 0.071 Not Reported Not Reported
05/15/2019 04:32 PM 43.70 42.08 40.28 57.38 38.66 86.0 Not Reported 8.50 S 6.71 S 12.08 SE No 0.000 No Precipitation 05/15/2019 07:30 AM 05/15/2019 07:35 AM 0.000 0.008 0.059 0.071 0.071 Not Reported Not Reported
05/15/2019 04:47 PM 43.34 41.54 39.56 57.38 38.66 86.0 Not Reported 7.38 S 9.62 S 12.97 S No 0.000 No Precipitation 05/15/2019 07:30 AM 05/15/2019 07:35 AM 0.000 0.008 0.059 0.071 0.071 Not Reported Not Reported
05/15/2019 05:02 PM 44.24 43.16 40.64 56.48 38.66 87.0 Not Reported 6.26 S 9.84 S 10.51 S No 0.000 No Precipitation 05/15/2019 07:30 AM 05/15/2019 07:35 AM 0.000 0.008 0.051 0.071 0.071 Not Reported Not Reported
05/15/2019 05:17 PM 43.52 41.72 40.28 55.76 38.66 88.0 Not Reported 10.29 S 7.16 SE 11.63 SE No 0.000 No Precipitation 05/15/2019 07:30 AM 05/15/2019 07:35 AM 0.000 0.008 0.043 0.071 0.071 Not Reported Not Reported
05/15/2019 05:32 PM 42.98 41.18 39.02 55.76 38.66 86.0 Not Reported 12.75 S 14.09 S 15.21 S No 0.000 No Precipitation 05/15/2019 07:30 AM 05/15/2019 07:35 AM 0.000 0.008 0.039 0.071 0.071 Not Reported Not Reported
05/15/2019 05:47 PM 42.80 41.36 39.92 55.76 38.66 89.0 Not Reported 8.72 S 5.14 S 14.32 S No 0.000 No Precipitation 05/15/2019 07:30 AM 05/15/2019 07:35 AM 0.000 0.004 0.039 0.071 0.071 Not Reported Not Reported
05/15/2019 06:02 PM 43.16 41.00 39.38 55.40 38.66 83.0 Not Reported 9.62 S 13.65 S 14.99 SE No 0.000 No Precipitation 05/15/2019 07:30 AM 05/15/2019 07:35 AM 0.000 0.004 0.035 0.071 0.071 Not Reported Not Reported
05/15/2019 06:17 PM 42.26 40.46 38.66 54.68 38.66 86.0 Not Reported 7.16 S 7.16 SW 18.12 SW No 0.000 No Precipitation 05/15/2019 07:30 AM 05/15/2019 07:35 AM 0.000 0.004 0.031 0.071 0.071 Not Reported Not Reported
05/15/2019 06:32 PM 42.08 40.64 38.84 54.68 38.66 88.0 Not Reported 4.47 S 3.58 SE 11.63 S No 0.000 No Precipitation 05/15/2019 07:30 AM 05/15/2019 07:35 AM 0.000 0.000 0.031 0.071 0.071 Not Reported Not Reported
05/15/2019 06:47 PM 41.72 40.64 39.38 54.32 38.66 91.0 Not Reported 7.83 SE 7.16 SE 11.63 S No 0.000 No Precipitation 05/15/2019 07:30 AM 05/15/2019 07:35 AM 0.000 0.000 0.020 0.071 0.071 Not Reported Not Reported
05/15/2019 07:02 PM 41.54 40.46 39.38 53.60 38.66 91.0 Not Reported 6.26 S 6.04 S 10.51 SE No 0.000 No Precipitation 05/15/2019 10:54 AM 05/15/2019 10:59 AM 0.004 0.004 0.020 0.075 0.075 Not Reported Not Reported
05/15/2019 07:17 PM 41.54 40.10 38.48 53.42 38.66 89.0 Not Reported 12.75 S 12.08 S 11.41 S No 0.000 No Precipitation 05/15/2019 11:03 AM 05/15/2019 11:08 AM 0.008 0.008 0.020 0.079 0.079 Not Reported Not Reported
05/15/2019 07:32 PM 41.18 40.10 39.20 52.88 38.66 92.0 Not Reported 5.59 S 7.61 S 13.42 SE No 0.000 No Precipitation 05/15/2019 11:25 AM 05/15/2019 11:30 AM 0.008 0.008 0.020 0.083 0.083 Not Reported Not Reported
05/15/2019 07:47 PM 41.36 40.10 39.02 52.34 38.66 91.0 Not Reported 6.04 SE 4.92 SW 14.76 SE No 0.000 No Precipitation 05/15/2019 11:38 AM 05/15/2019 11:43 AM 0.016 0.016 0.028 0.083 0.083 Not Reported Not Reported
05/15/2019 08:02 PM 41.18 40.10 39.02 51.98 38.66 90.0 Not Reported 9.40 SE 14.32 S 11.86 SE No 0.000 No Precipitation 05/15/2019 11:55 AM 05/15/2019 12:00 PM 0.016 0.020 0.031 0.091 0.091 Not Reported Not Reported
05/15/2019 08:17 PM 41.18 39.92 38.12 51.44 38.66 89.0 Not Reported 8.72 SE 3.80 E 17.00 S No 0.000 No Precipitation 05/15/2019 12:05 PM 05/15/2019 12:10 PM 0.016 0.020 0.035 0.091 0.091 Not Reported Not Reported
05/15/2019 08:32 PM 41.18 39.74 37.94 50.90 38.66 88.0 Not Reported 6.93 SE 5.14 SE 13.65 SE No 0.000 No Precipitation 05/15/2019 12:05 PM 05/15/2019 12:10 PM 0.008 0.020 0.031 0.091 0.091 Not Reported Not Reported
05/15/2019 08:47 PM 41.18 39.74 38.12 50.54 38.66 88.0 Not Reported 6.26 SE 8.05 SE 11.18 E No 0.000 No Precipitation 05/15/2019 12:05 PM 05/15/2019 12:10 PM 0.008 0.020 0.028 0.091 0.091 Not Reported Not Reported
05/15/2019 09:02 PM 41.00 39.92 38.48 50.18 38.66 90.0 Not Reported 7.38 E 8.28 SE 9.84 SE No 0.000 No Precipitation 05/15/2019 12:05 PM 05/15/2019 12:10 PM 0.004 0.020 0.028 0.091 0.091 Not Reported Not Reported
05/15/2019 09:17 PM 40.82 39.74 38.84 49.64 38.66 92.0 Not Reported 4.47 E 4.70 S 9.62 SE Yes 0.043 Rain Slight 05/15/2019 01:14 PM   0.004 0.028 0.031 0.091 0.098 Not Reported Not Reported
05/15/2019 09:32 PM 40.46 39.74 38.66 49.46 38.66 93.0 Not Reported 4.92 SE 4.70 E 11.18 SE No 0.000 No Precipitation 05/15/2019 01:14 PM 05/15/2019 01:19 PM 0.004 0.028 0.028 0.091 0.098 Not Reported Not Reported
05/15/2019 09:47 PM 40.46 39.74 38.66 49.28 38.66 93.0 Not Reported 3.36 S 2.46 SE 6.71 S Yes 0.043 Rain Slight 05/15/2019 01:45 PM   0.008 0.035 0.035 0.098 0.102 Not Reported Not Reported
05/15/2019 10:02 PM 40.46 39.56 38.48 49.10 38.66 92.0 Not Reported 2.68 SE 7.61 SE 8.95 SE No 0.000 No Precipitation 05/15/2019 01:45 PM 05/15/2019 01:50 PM 0.008 0.031 0.035 0.098 0.102 Not Reported Not Reported
05/15/2019 10:17 PM 40.64 39.56 38.30 48.20 38.66 91.0 Not Reported 5.82 SE 3.58 S 9.84 SE Yes 0.043 Rain Slight 05/15/2019 02:14 PM   0.016 0.035 0.039 0.102 0.110 Not Reported Not Reported
05/15/2019 10:32 PM 40.46 39.56 38.30 47.66 38.66 92.0 Not Reported 7.16 SE 3.36 SE 12.53 S No 0.000 No Precipitation 05/15/2019 02:14 PM 05/15/2019 02:19 PM 0.016 0.031 0.039 0.102 0.110 Not Reported Not Reported
05/15/2019 10:47 PM 40.46 39.56 38.30 46.58 38.66 91.0 Not Reported 6.49 SE 12.75 SE 9.84 SE Yes 0.043 Rain Slight 05/15/2019 02:46 PM   0.016 0.035 0.051 0.110 0.122 Not Reported Not Reported
05/15/2019 11:02 PM 40.46 39.38 38.30 45.32 38.66 91.0 Not Reported 11.18 SE 12.53 S 16.11 S No 0.000 No Precipitation 05/15/2019 02:55 PM 05/15/2019 03:00 PM 0.020 0.035 0.055 0.102 0.126 Not Reported Not Reported
05/15/2019 11:17 PM 40.10 39.02 37.94 44.60 38.66 91.0 Not Reported 8.95 SE 10.96 SW 17.67 SE No 0.000 No Precipitation 05/15/2019 03:09 PM 05/15/2019 03:14 PM 0.020 0.039 0.063 0.110 0.134 Not Reported Not Reported
05/15/2019 11:32 PM 40.10 39.02 37.94 44.60 38.66 91.0 Not Reported 10.07 SE 8.28 SE 13.87 SE Yes 0.043 Rain Slight 05/15/2019 03:29 PM   0.028 0.043 0.071 0.110 0.142 Not Reported Not Reported
05/15/2019 11:47 PM 39.92 39.02 37.76 44.60 38.66 92.0 Not Reported 8.95 SE 4.25 S 12.97 SE No 0.000 No Precipitation 05/15/2019 03:38 PM 05/15/2019 03:43 PM 0.020 0.051 0.075 0.110 0.146 Not Reported Not Reported